Time;durP1;ratioP1;P1;durP2;ratioP2;P2;SDS_P1;SDS_P2;PMS_P1;PMS_P2;Temp;Humidity;BMP_temperature;BMP_pressure;BME280_temperature;BME280_humidity;BME280_pressure;Samples;Min_cycle;Max_cycle;Signal;HPM_P1;HPM_P2
2021/06/02 00:00:52;;;;;;;;;7.50;6.00;;;;;;;;5033511;28;8833;-81
2021/06/02 00:03:29;;;;;;;;;5.50;5.50;;;;;;;;5041994;28;8895;-82
2021/06/02 00:05:56;;;;;;;;;5.00;5.00;;;;;;;;5040553;28;8887;-82
2021/06/02 00:08:26;;;;;;;;;4.75;4.75;;;;;;;;5040973;28;8892;-81
2021/06/02 00:10:54;;;;;;;;;4.00;4.00;;;;;;;;5031492;28;8906;-80
2021/06/02 00:13:21;;;;;;;;;5.00;5.00;;;;;;;;5034916;28;8880;-79
2021/06/02 00:15:49;;;;;;;;;6.50;6.50;;;;;;;;5049600;28;8868;-81
2021/06/02 00:18:17;;;;;;;;;3.00;3.00;;;;;;;;5042809;28;8893;-81
2021/06/02 00:20:44;;;;;;;;;5.50;5.50;;;;;;;;5035849;28;8855;-79
2021/06/02 00:23:11;;;;;;;;;5.00;5.00;;;;;;;;5043092;28;8900;-80
2021/06/02 00:25:40;;;;;;;;;6.75;6.75;;;;;;;;5036886;28;8911;-81
2021/06/02 00:28:07;;;;;;;;;6.00;6.00;;;;;;;;5042755;28;8899;-82
2021/06/02 00:30:36;;;;;;;;;4.75;3.50;;;;;;;;5034623;28;8816;-82
2021/06/02 00:33:03;;;;;;;;;5.00;5.00;;;;;;;;5037379;28;8883;-80
2021/06/02 00:35:30;;;;;;;;;6.00;6.00;;;;;;;;5036284;28;8879;-82
2021/06/02 00:37:57;;;;;;;;;6.00;6.00;;;;;;;;5040838;28;8865;-81
2021/06/02 00:40:32;;;;;;;;;6.00;4.75;;;;;;;;5044798;28;8896;-81
2021/06/02 00:43:00;;;;;;;;;9.25;7.50;;;;;;;;5044491;28;9662;-81
2021/06/02 00:45:28;;;;;;;;;6.50;6.50;;;;;;;;5041914;28;8906;-80
2021/06/02 00:47:56;;;;;;;;;5.25;5.25;;;;;;;;5039537;28;9013;-81
2021/06/02 00:50:23;;;;;;;;;6.50;6.50;;;;;;;;5038042;28;9027;-80
2021/06/02 00:52:50;;;;;;;;;5.00;5.00;;;;;;;;5041095;28;8877;-81
2021/06/02 00:55:17;;;;;;;;;5.50;5.25;;;;;;;;5043647;28;8875;-81
2021/06/02 00:57:48;;;;;;;;;4.25;4.25;;;;;;;;5040826;28;8895;-82
2021/06/02 01:00:18;;;;;;;;;5.00;5.00;;;;;;;;5038833;28;8877;-81
2021/06/02 01:02:51;;;;;;;;;5.25;5.25;;;;;;;;5039951;28;8978;-81
2021/06/02 01:05:21;;;;;;;;;5.75;5.75;;;;;;;;5042075;28;8877;-81
2021/06/02 01:07:51;;;;;;;;;8.25;6.25;;;;;;;;5045463;28;8849;-82
2021/06/02 01:10:19;;;;;;;;;5.25;5.25;;;;;;;;5033520;28;8885;-80
2021/06/02 01:12:50;;;;;;;;;5.00;5.00;;;;;;;;5036137;28;8857;-81
2021/06/02 01:15:19;;;;;;;;;6.00;6.00;;;;;;;;5040107;28;8951;-80
2021/06/02 01:17:46;;;;;;;;;5.50;5.50;;;;;;;;5038113;28;8899;-81
2021/06/02 01:20:15;;;;;;;;;4.00;3.25;;;;;;;;5043788;28;8972;-81
2021/06/02 01:22:43;;;;;;;;;5.25;5.25;;;;;;;;5039485;28;8864;-81
2021/06/02 01:25:12;;;;;;;;;6.00;6.00;;;;;;;;5036289;28;8986;-82
2021/06/02 01:27:39;;;;;;;;;6.00;6.00;;;;;;;;5031281;28;9612;-82
2021/06/02 01:30:09;;;;;;;;;5.00;5.00;;;;;;;;5034521;28;8851;-82
2021/06/02 01:32:50;;;;;;;;;6.25;5.25;;;;;;;;5035044;28;9476;-81
2021/06/02 01:35:41;;;;;;;;;4.75;4.75;;;;;;;;5037087;28;8953;-81
2021/06/02 01:38:46;;;;;;;;;5.00;5.00;;;;;;;;5040391;28;8864;-82
2021/06/02 01:41:22;;;;;;;;;6.75;5.00;;;;;;;;5031643;28;8861;-81
2021/06/02 01:44:27;;;;;;;;;6.25;6.25;;;;;;;;5042860;28;8901;-81
2021/06/02 01:47:07;;;;;;;;;3.75;3.25;;;;;;;;5041758;28;8880;-82
2021/06/02 01:49:51;;;;;;;;;4.00;4.00;;;;;;;;5035763;28;8881;-83
2021/06/02 01:52:45;;;;;;;;;5.50;5.50;;;;;;;;5035664;28;8883;-81
2021/06/02 01:55:34;;;;;;;;;7.00;6.75;;;;;;;;5034797;28;8903;-82
2021/06/02 01:58:19;;;;;;;;;7.00;5.00;;;;;;;;5032964;28;8885;-81
2021/06/02 02:00:55;;;;;;;;;5.00;5.00;;;;;;;;5040744;28;9710;-81
2021/06/02 02:03:58;;;;;;;;;5.00;5.00;;;;;;;;5036835;28;8853;-85
2021/06/02 02:06:49;;;;;;;;;5.00;5.00;;;;;;;;5033188;28;8884;-81
2021/06/02 02:09:26;;;;;;;;;5.00;5.00;;;;;;;;5034370;28;9621;-82
2021/06/02 02:12:02;;;;;;;;;6.50;5.00;;;;;;;;5036224;28;8861;-82
2021/06/02 02:14:52;;;;;;;;;7.50;6.25;;;;;;;;5037153;28;8871;-82
2021/06/02 02:17:41;;;;;;;;;4.75;4.25;;;;;;;;5034634;28;8847;-82
2021/06/02 02:20:18;;;;;;;;;6.50;6.00;;;;;;;;5027469;28;8856;-81
2021/06/02 02:23:13;;;;;;;;;5.50;4.25;;;;;;;;5035311;28;8860;-81
2021/06/02 02:25:48;;;;;;;;;5.75;5.75;;;;;;;;5023852;28;8856;-81
2021/06/02 02:28:41;;;;;;;;;4.25;4.25;;;;;;;;5038218;28;8889;-80
2021/06/02 02:31:16;;;;;;;;;3.00;3.00;;;;;;;;5037790;28;8817;-81
2021/06/02 02:33:50;;;;;;;;;6.00;6.00;;;;;;;;5034667;28;8879;-80
2021/06/02 02:36:26;;;;;;;;;6.00;6.00;;;;;;;;5029258;28;8869;-81
2021/06/02 02:39:10;;;;;;;;;4.50;4.50;;;;;;;;5043654;28;8867;-82
2021/06/02 02:41:46;;;;;;;;;5.50;5.50;;;;;;;;5033921;28;8889;-82
2021/06/02 02:44:48;;;;;;;;;6.00;6.00;;;;;;;;5027575;28;8875;-83
2021/06/02 02:47:18;;;;;;;;;5.25;5.25;;;;;;;;5038962;28;8859;-82
2021/06/02 02:49:57;;;;;;;;;5.50;5.00;;;;;;;;5036053;28;8842;-83
2021/06/02 02:52:32;;;;;;;;;8.00;6.50;;;;;;;;5033619;28;8845;-82
2021/06/02 02:55:04;;;;;;;;;7.00;5.00;;;;;;;;5040357;28;8903;-83
2021/06/02 02:57:39;;;;;;;;;5.50;5.50;;;;;;;;5031898;28;8861;-82
2021/06/02 03:00:11;;;;;;;;;4.00;4.00;;;;;;;;5040566;28;8999;-81
2021/06/02 03:02:46;;;;;;;;;5.00;5.00;;;;;;;;5042038;28;8877;-81
2021/06/02 03:05:16;;;;;;;;;6.50;6.50;;;;;;;;5028806;28;8934;-82
2021/06/02 03:07:48;;;;;;;;;3.75;3.75;;;;;;;;5032163;28;8857;-82
2021/06/02 03:10:17;;;;;;;;;6.75;6.75;;;;;;;;5036718;28;8884;-81
2021/06/02 03:12:55;;;;;;;;;5.00;5.00;;;;;;;;5037272;28;8885;-81
2021/06/02 03:15:40;;;;;;;;;3.25;3.25;;;;;;;;5039472;28;8883;-82
2021/06/02 03:18:33;;;;;;;;;6.00;6.00;;;;;;;;5036647;28;8925;-82
2021/06/02 03:21:22;;;;;;;;;5.50;4.75;;;;;;;;5026574;28;8952;-82
2021/06/02 03:24:18;;;;;;;;;6.00;4.25;;;;;;;;5028738;28;8883;-81
2021/06/02 03:26:52;;;;;;;;;4.00;4.00;;;;;;;;5037835;28;8880;-81
2021/06/02 03:29:33;;;;;;;;;6.00;6.00;;;;;;;;5039875;28;8996;-82
2021/06/02 03:32:07;;;;;;;;;5.25;5.25;;;;;;;;5051858;28;8806;-82
2021/06/02 03:34:48;;;;;;;;;5.00;5.00;;;;;;;;5040643;28;8861;-82
2021/06/02 03:37:24;;;;;;;;;6.00;6.00;;;;;;;;5030511;28;8856;-81
2021/06/02 03:39:55;;;;;;;;;6.25;6.25;;;;;;;;5030260;28;8857;-81
2021/06/02 03:42:33;;;;;;;;;7.00;7.00;;;;;;;;5041154;28;8881;-82
2021/06/02 03:45:10;;;;;;;;;5.50;5.50;;;;;;;;5039020;28;8869;-82
2021/06/02 03:47:46;;;;;;;;;5.00;5.00;;;;;;;;5036051;28;8887;-82
2021/06/02 03:50:18;;;;;;;;;5.25;5.25;;;;;;;;5046662;28;8946;-82
2021/06/02 03:53:03;;;;;;;;;5.50;5.50;;;;;;;;5040875;28;8895;-82
2021/06/02 03:55:35;;;;;;;;;8.50;8.50;;;;;;;;5035019;28;8967;-83
2021/06/02 03:58:10;;;;;;;;;6.00;5.75;;;;;;;;5039394;28;8885;-81
2021/06/02 04:00:43;;;;;;;;;7.25;7.25;;;;;;;;5041150;28;8976;-82
2021/06/02 04:03:21;;;;;;;;;5.00;5.00;;;;;;;;5037162;28;8881;-81
2021/06/02 04:06:03;;;;;;;;;5.00;5.00;;;;;;;;5040281;28;8926;-80
2021/06/02 04:08:41;;;;;;;;;6.00;6.00;;;;;;;;5036291;28;8918;-80
2021/06/02 04:11:17;;;;;;;;;5.00;5.00;;;;;;;;5033641;28;8885;-81
2021/06/02 04:13:54;;;;;;;;;6.75;6.00;;;;;;;;5039054;28;8996;-82
2021/06/02 04:16:29;;;;;;;;;5.25;5.25;;;;;;;;5045214;28;8865;-84
2021/06/02 04:19:01;;;;;;;;;5.25;5.25;;;;;;;;5040607;28;8879;-86
2021/06/02 04:21:28;;;;;;;;;6.50;5.50;;;;;;;;5041467;28;8881;-83
2021/06/02 04:23:57;;;;;;;;;7.75;7.75;;;;;;;;5042643;28;9064;-88
2021/06/02 04:26:30;;;;;;;;;5.25;5.25;;;;;;;;5046648;28;9670;-88
2021/06/02 04:29:00;;;;;;;;;7.25;6.75;;;;;;;;5040581;28;8878;-81
2021/06/02 04:31:29;;;;;;;;;6.50;5.50;;;;;;;;5037741;28;8813;-83
2021/06/02 04:33:59;;;;;;;;;7.75;7.00;;;;;;;;5052633;28;8887;-82
2021/06/02 04:36:27;;;;;;;;;6.00;6.00;;;;;;;;5040310;28;8853;-82
2021/06/02 04:38:55;;;;;;;;;7.00;7.00;;;;;;;;5042276;28;8859;-81
2021/06/02 04:41:22;;;;;;;;;7.25;5.50;;;;;;;;5027111;28;8990;-82
2021/06/02 04:43:51;;;;;;;;;7.00;7.00;;;;;;;;5025654;28;8900;-81
2021/06/02 04:46:19;;;;;;;;;6.50;5.75;;;;;;;;5039838;28;9003;-81
2021/06/02 04:48:46;;;;;;;;;7.00;4.00;;;;;;;;5035975;28;8877;-83
2021/06/02 04:51:59;;;;;;;;;8.75;7.00;;;;;;;;5043879;28;8891;-81
2021/06/02 04:55:08;;;;;;;;;6.00;6.00;;;;;;;;5040399;28;8865;-80
2021/06/02 04:58:06;;;;;;;;;7.25;5.00;;;;;;;;5044456;28;8873;-82
2021/06/02 05:00:56;;;;;;;;;5.50;5.50;;;;;;;;5044960;28;8801;-82
2021/06/02 05:04:11;;;;;;;;;9.00;7.00;;;;;;;;5040414;28;8881;-82
2021/06/02 05:07:14;;;;;;;;;8.25;6.50;;;;;;;;4982057;28;8869;-83
2021/06/02 05:10:18;;;;;;;;;5.75;5.75;;;;;;;;5043972;28;8861;-83
2021/06/02 05:13:25;;;;;;;;;7.00;7.00;;;;;;;;5038986;28;8880;-81
2021/06/02 05:16:45;;;;;;;;;7.00;6.00;;;;;;;;5015039;28;9572;-79
2021/06/02 05:19:58;;;;;;;;;5.00;5.00;;;;;;;;4981468;28;8896;-81
2021/06/02 05:23:12;;;;;;;;;6.25;6.00;;;;;;;;5022978;28;8848;-81
2021/06/02 05:26:12;;;;;;;;;8.00;7.50;;;;;;;;5032917;28;8884;-79
2021/06/02 05:29:03;;;;;;;;;9.00;7.75;;;;;;;;5041625;28;8879;-80
2021/06/02 05:32:13;;;;;;;;;7.00;7.00;;;;;;;;5036552;28;8826;-81
2021/06/02 05:35:28;;;;;;;;;7.00;7.00;;;;;;;;5010235;28;8879;-81
2021/06/02 05:38:28;;;;;;;;;8.25;7.00;;;;;;;;5001337;28;8850;-82
2021/06/02 05:41:07;;;;;;;;;6.50;6.00;;;;;;;;4965537;28;9729;-81
2021/06/02 05:44:22;;;;;;;;;6.75;6.75;;;;;;;;5028499;28;8976;-81
2021/06/02 05:47:19;;;;;;;;;5.50;5.50;;;;;;;;5000883;28;9035;-78
2021/06/02 05:50:35;;;;;;;;;6.00;6.00;;;;;;;;5043477;28;9007;-83
2021/06/02 05:53:46;;;;;;;;;6.00;6.00;;;;;;;;5021057;28;8985;-79
2021/06/02 05:57:03;;;;;;;;;5.50;5.50;;;;;;;;5000515;28;8902;-80
2021/06/02 06:00:03;;;;;;;;;6.75;6.75;;;;;;;;5026512;28;8853;-82
2021/06/02 06:03:04;;;;;;;;;5.50;5.50;;;;;;;;5033638;28;9003;-80
2021/06/02 06:05:43;;;;;;;;;6.00;6.00;;;;;;;;5033402;28;8877;-81
2021/06/02 06:08:39;;;;;;;;;6.00;6.00;;;;;;;;5036826;28;8865;-79
2021/06/02 06:11:53;;;;;;;;;7.25;6.00;;;;;;;;5041306;28;8865;-81
2021/06/02 06:14:48;;;;;;;;;5.25;5.25;;;;;;;;5037408;28;8949;-80
2021/06/02 06:17:55;;;;;;;;;6.00;6.00;;;;;;;;5018737;28;8944;-79
2021/06/02 06:20:44;;;;;;;;;5.00;5.00;;;;;;;;5044363;28;8880;-80
2021/06/02 06:23:31;;;;;;;;;5.00;5.00;;;;;;;;5035808;28;8957;-80
2021/06/02 06:26:06;;;;;;;;;7.00;5.50;;;;;;;;4985409;28;8860;-82
2021/06/02 06:28:37;;;;;;;;;5.25;5.25;;;;;;;;5000591;28;8868;-78
2021/06/02 06:31:13;;;;;;;;;4.00;4.00;;;;;;;;4995186;28;9574;-81
2021/06/02 06:33:41;;;;;;;;;7.00;7.00;;;;;;;;5001716;28;8970;-84
2021/06/02 06:36:09;;;;;;;;;5.50;5.50;;;;;;;;5008426;28;9605;-80
2021/06/02 06:38:54;;;;;;;;;6.00;6.00;;;;;;;;5002844;28;8851;-80
2021/06/02 06:41:24;;;;;;;;;5.00;5.00;;;;;;;;4999601;28;8892;-82
2021/06/02 06:43:54;;;;;;;;;7.50;7.50;;;;;;;;4995289;28;8870;-81
2021/06/02 06:46:23;;;;;;;;;8.75;7.00;;;;;;;;5000061;28;8888;-81
2021/06/02 06:48:51;;;;;;;;;3.50;3.50;;;;;;;;5004175;28;8879;-81
2021/06/02 06:51:21;;;;;;;;;6.00;6.00;;;;;;;;5003576;28;9010;-80
2021/06/02 06:53:50;;;;;;;;;7.00;7.00;;;;;;;;4999715;28;8910;-79
2021/06/02 06:56:20;;;;;;;;;7.00;5.25;;;;;;;;5003156;28;8852;-83
2021/06/02 06:58:47;;;;;;;;;7.00;6.25;;;;;;;;4996408;28;9634;-82
2021/06/02 07:01:16;;;;;;;;;7.00;7.00;;;;;;;;5002042;28;8809;-85
2021/06/02 07:03:43;;;;;;;;;8.00;6.75;;;;;;;;5002183;28;8903;-83
2021/06/02 07:06:12;;;;;;;;;6.50;6.50;;;;;;;;5000387;28;9678;-86
2021/06/02 07:08:42;;;;;;;;;11.00;8.75;;;;;;;;4983384;28;8844;-83
2021/06/02 07:11:13;;;;;;;;;5.00;5.00;;;;;;;;4993128;28;8876;-86
2021/06/02 07:13:40;;;;;;;;;8.00;7.00;;;;;;;;4999883;28;8910;-87
2021/06/02 07:16:07;;;;;;;;;6.50;6.50;;;;;;;;5002639;28;8990;-83
2021/06/02 07:18:34;;;;;;;;;6.75;6.75;;;;;;;;5004189;28;8887;-86
2021/06/02 07:21:03;;;;;;;;;4.75;4.75;;;;;;;;5002038;28;9001;-83
2021/06/02 07:23:31;;;;;;;;;10.00;10.00;;;;;;;;5002956;28;8884;-80
2021/06/02 07:25:58;;;;;;;;;8.00;8.00;;;;;;;;5005044;28;8870;-82
2021/06/02 07:28:35;;;;;;;;;7.50;7.50;;;;;;;;4997477;28;8858;-83
2021/06/02 07:31:03;;;;;;;;;7.80;7.00;;;;;;;;4998280;28;10231;-82
2021/06/02 07:33:30;;;;;;;;;6.60;6.60;;;;;;;;4989063;28;8871;-83
2021/06/02 07:35:57;;;;;;;;;8.00;7.40;;;;;;;;4995954;28;8895;-86
2021/06/02 07:38:25;;;;;;;;;7.80;7.60;;;;;;;;4999666;28;8864;-81
2021/06/02 07:40:52;;;;;;;;;9.00;9.00;;;;;;;;5000775;28;8872;-81
2021/06/02 07:43:20;;;;;;;;;8.20;8.20;;;;;;;;4999393;28;8860;-82
2021/06/02 07:45:48;;;;;;;;;7.60;7.60;;;;;;;;4999765;28;8864;-87
2021/06/02 07:48:15;;;;;;;;;9.00;9.00;;;;;;;;5002866;28;8976;-80
2021/06/02 07:50:43;;;;;;;;;6.40;6.40;;;;;;;;5000406;28;9757;-81
2021/06/02 07:53:10;;;;;;;;;7.80;7.80;;;;;;;;5003888;28;8860;-82
2021/06/02 07:55:37;;;;;;;;;7.60;7.60;;;;;;;;5002725;28;9011;-80
2021/06/02 07:58:04;;;;;;;;;9.00;8.00;;;;;;;;5004278;28;8872;-83
2021/06/02 08:00:31;;;;;;;;;8.00;8.00;;;;;;;;5001405;28;8886;-82
2021/06/02 08:02:59;;;;;;;;;7.00;7.00;;;;;;;;5002902;28;8880;-81
2021/06/02 08:05:27;;;;;;;;;6.00;6.00;;;;;;;;5000542;28;8884;-84
2021/06/02 08:07:54;;;;;;;;;8.40;8.40;;;;;;;;4994820;28;8952;-84
2021/06/02 08:10:21;;;;;;;;;9.00;9.00;;;;;;;;4995398;28;8906;-81
2021/06/02 08:12:50;;;;;;;;;10.20;10.20;;;;;;;;5000353;28;8868;-83
2021/06/02 08:15:18;;;;;;;;;8.00;6.00;;;;;;;;5000637;28;8871;-81
2021/06/02 08:17:45;;;;;;;;;9.20;9.20;;;;;;;;5001454;28;8897;-82
2021/06/02 08:20:16;;;;;;;;;10.40;10.40;;;;;;;;4998318;28;8920;-84
2021/06/02 08:22:43;;;;;;;;;10.60;8.80;;;;;;;;4995946;28;8902;-80
2021/06/02 08:25:12;;;;;;;;;11.60;11.60;;;;;;;;5002264;28;9062;-83
2021/06/02 08:27:39;;;;;;;;;10.00;10.00;;;;;;;;5004108;28;9027;-80
2021/06/02 08:30:08;;;;;;;;;9.00;9.00;;;;;;;;4997165;28;8859;-89
2021/06/02 08:32:36;;;;;;;;;6.60;6.60;;;;;;;;5001803;28;8884;-86
2021/06/02 08:35:05;;;;;;;;;11.20;11.20;;;;;;;;4999831;28;9014;-86
2021/06/02 08:37:33;;;;;;;;;9.00;8.60;;;;;;;;5006883;28;8920;-87
2021/06/02 08:40:00;;;;;;;;;9.00;9.00;;;;;;;;5005014;28;8861;-87
2021/06/02 08:42:27;;;;;;;;;8.80;8.80;;;;;;;;4996525;28;8872;-86
2021/06/02 08:44:54;;;;;;;;;9.80;9.80;;;;;;;;4999526;28;9089;-88
2021/06/02 08:47:21;;;;;;;;;10.40;10.40;;;;;;;;5008189;28;8990;-85
2021/06/02 08:49:49;;;;;;;;;7.40;7.40;;;;;;;;5007248;28;8927;-88
2021/06/02 08:52:16;;;;;;;;;11.60;11.00;;;;;;;;5006962;28;8864;-87
2021/06/02 08:54:44;;;;;;;;;7.60;7.60;;;;;;;;5003983;28;8886;-88
2021/06/02 08:57:11;;;;;;;;;8.40;8.20;;;;;;;;5007367;28;8860;-88
2021/06/02 08:59:38;;;;;;;;;11.60;10.60;;;;;;;;4998987;28;8900;-84
2021/06/02 09:02:06;;;;;;;;;11.00;9.40;;;;;;;;4998577;28;8817;-87
2021/06/02 09:04:34;;;;;;;;;11.80;10.20;;;;;;;;4999207;28;8890;-88
2021/06/02 09:07:04;;;;;;;;;10.80;10.80;;;;;;;;5007514;28;8929;-87
2021/06/02 09:09:31;;;;;;;;;11.40;11.40;;;;;;;;4997784;28;8959;-87
2021/06/02 09:12:04;;;;;;;;;12.20;12.20;;;;;;;;5001234;28;8930;-86
2021/06/02 09:14:36;;;;;;;;;12.60;11.20;;;;;;;;5006655;28;8868;-88
2021/06/02 09:17:06;;;;;;;;;12.00;10.20;;;;;;;;5001634;28;8887;-88
2021/06/02 09:19:38;;;;;;;;;13.20;12.80;;;;;;;;4994112;28;8877;-88
2021/06/02 09:22:07;;;;;;;;;10.40;10.40;;;;;;;;5001089;28;8890;-86
2021/06/02 09:24:57;;;;;;;;;13.00;13.00;;;;;;;;5001433;28;9012;-88
2021/06/02 09:27:46;;;;;;;;;12.00;11.60;;;;;;;;5003610;28;8932;-88
2021/06/02 09:30:15;;;;;;;;;10.80;10.80;;;;;;;;4995910;28;8860;-88
2021/06/02 09:32:48;;;;;;;;;11.20;11.20;;;;;;;;5005759;28;9003;-86
2021/06/02 09:35:15;;;;;;;;;12.80;12.20;;;;;;;;4999646;28;9021;-84
2021/06/02 09:37:54;;;;;;;;;7.40;7.40;;;;;;;;5006044;28;9662;-88
2021/06/02 09:40:23;;;;;;;;;12.20;12.20;;;;;;;;5005578;28;8856;-90
2021/06/02 09:42:52;;;;;;;;;14.80;13.60;;;;;;;;5006345;28;8848;-86
2021/06/02 09:45:19;;;;;;;;;11.20;11.20;;;;;;;;5001238;28;8993;-87
2021/06/02 09:47:47;;;;;;;;;11.80;11.80;;;;;;;;5001664;28;8890;-88
2021/06/02 09:50:15;;;;;;;;;13.00;11.60;;;;;;;;5000302;28;9022;-88
2021/06/02 09:52:46;;;;;;;;;15.00;15.00;;;;;;;;5001378;28;8948;-85
2021/06/02 09:55:24;;;;;;;;;11.60;11.60;;;;;;;;4995415;28;8864;-84
2021/06/02 09:58:13;;;;;;;;;11.80;11.80;;;;;;;;4995881;28;8876;-88
2021/06/02 10:00:42;;;;;;;;;14.40;14.20;;;;;;;;4996501;28;8812;-84
2021/06/02 10:03:11;;;;;;;;;14.60;14.60;;;;;;;;5004720;28;10552;-87
2021/06/02 10:05:40;;;;;;;;;13.00;13.00;;;;;;;;5003847;28;8896;-82
2021/06/02 10:08:07;;;;;;;;;12.20;12.20;;;;;;;;5004209;28;8937;-80
2021/06/02 10:10:35;;;;;;;;;16.00;16.00;;;;;;;;5002098;28;8883;-78
2021/06/02 10:13:06;;;;;;;;;11.80;11.80;;;;;;;;4992877;28;9395;-81
2021/06/02 10:15:37;;;;;;;;;13.80;12.40;;;;;;;;5007724;28;9735;-85
2021/06/02 10:18:05;;;;;;;;;15.00;15.00;;;;;;;;5003290;28;8867;-84
2021/06/02 10:20:33;;;;;;;;;12.60;12.60;;;;;;;;5005132;28;8852;-85
2021/06/02 10:23:01;;;;;;;;;13.20;13.20;;;;;;;;5002650;28;9026;-80
2021/06/02 10:25:29;;;;;;;;;12.80;12.80;;;;;;;;5002761;28;8994;-83
2021/06/02 10:27:57;;;;;;;;;14.00;12.00;;;;;;;;4996783;28;8876;-85
2021/06/02 10:30:29;;;;;;;;;11.60;11.60;;;;;;;;5008742;28;8804;-84
2021/06/02 10:32:58;;;;;;;;;17.60;16.20;;;;;;;;5004126;28;8938;-85
2021/06/02 10:35:25;;;;;;;;;14.40;13.20;;;;;;;;5004266;28;8918;-84
2021/06/02 10:37:55;;;;;;;;;15.40;15.40;;;;;;;;5004662;28;8903;-84
2021/06/02 10:40:24;;;;;;;;;14.40;13.20;;;;;;;;5002589;28;8876;-82
2021/06/02 10:42:58;;;;;;;;;12.80;12.80;;;;;;;;5004498;28;8872;-81
2021/06/02 10:45:28;;;;;;;;;14.80;14.40;;;;;;;;5002849;28;8894;-77
2021/06/02 10:47:58;;;;;;;;;13.60;13.60;;;;;;;;5007719;28;8922;-80
2021/06/02 10:50:34;;;;;;;;;13.20;13.20;;;;;;;;5003562;28;8876;-81
2021/06/02 10:53:19;;;;;;;;;13.40;11.60;;;;;;;;5004703;28;8998;-81
2021/06/02 10:55:48;;;;;;;;;11.20;11.20;;;;;;;;4995397;28;8875;-81
2021/06/02 10:58:18;;;;;;;;;15.40;13.80;;;;;;;;4986768;28;8871;-82
2021/06/02 11:00:46;;;;;;;;;13.20;11.60;;;;;;;;5000422;28;8809;-80
2021/06/02 11:03:23;;;;;;;;;20.40;17.20;;;;;;;;4995231;28;8878;-83
2021/06/02 11:06:29;;;;;;;;;14.00;14.00;;;;;;;;5002704;28;8896;-82
2021/06/02 11:09:12;;;;;;;;;13.80;13.80;;;;;;;;4986287;28;8913;-78
2021/06/02 11:11:41;;;;;;;;;14.40;14.40;;;;;;;;4989312;28;9552;-80
2021/06/02 11:14:27;;;;;;;;;15.40;15.00;;;;;;;;5000254;28;8902;-81
2021/06/02 11:17:02;;;;;;;;;14.80;14.80;;;;;;;;5001166;28;8872;-81
2021/06/02 11:19:37;;;;;;;;;14.00;12.80;;;;;;;;5000078;28;9626;-79
2021/06/02 11:22:06;;;;;;;;;11.40;11.40;;;;;;;;4992296;28;8860;-81
2021/06/02 11:24:40;;;;;;;;;11.00;11.00;;;;;;;;5009470;28;8885;-81
2021/06/02 11:27:35;;;;;;;;;13.00;13.00;;;;;;;;5007573;28;8882;-79
2021/06/02 11:30:24;;;;;;;;;12.80;12.80;;;;;;;;4994039;28;8898;-82
2021/06/02 11:33:07;;;;;;;;;12.60;12.60;;;;;;;;4992679;28;8910;-81
2021/06/02 11:36:08;;;;;;;;;12.00;12.00;;;;;;;;4999992;28;8856;-78
2021/06/02 11:38:38;;;;;;;;;14.00;12.60;;;;;;;;4990302;28;8888;-85
2021/06/02 11:41:05;;;;;;;;;13.60;13.60;;;;;;;;5005457;28;8869;-82
2021/06/02 11:43:33;;;;;;;;;15.60;14.00;;;;;;;;4996375;28;8897;-81
2021/06/02 11:46:00;;;;;;;;;12.80;12.40;;;;;;;;5000504;28;9009;-81
2021/06/02 11:48:36;;;;;;;;;14.00;14.00;;;;;;;;4992328;28;8856;-78
2021/06/02 11:51:08;;;;;;;;;11.20;11.20;;;;;;;;4998396;28;8843;-75
2021/06/02 11:53:46;;;;;;;;;12.00;12.00;;;;;;;;5005723;28;8868;-76
2021/06/02 11:56:14;;;;;;;;;12.00;12.00;;;;;;;;4992064;28;8886;-74
2021/06/02 11:58:41;;;;;;;;;14.60;13.00;;;;;;;;5004849;28;8919;-82
2021/06/02 12:01:08;;;;;;;;;12.20;12.20;;;;;;;;4999729;28;8816;-87
2021/06/02 12:03:35;;;;;;;;;11.80;11.80;;;;;;;;4994443;28;8876;-80
2021/06/02 12:06:03;;;;;;;;;13.60;13.60;;;;;;;;5000620;28;8904;-81
2021/06/02 12:08:31;;;;;;;;;13.00;13.00;;;;;;;;5003488;28;8863;-76
2021/06/02 12:10:59;;;;;;;;;15.40;13.60;;;;;;;;5006861;28;9650;-84
2021/06/02 12:13:29;;;;;;;;;14.80;14.80;;;;;;;;5003828;28;8859;-80
2021/06/02 12:15:58;;;;;;;;;13.40;12.40;;;;;;;;5005461;28;8856;-77
2021/06/02 12:18:34;;;;;;;;;14.40;11.60;;;;;;;;5005354;28;8864;-78
2021/06/02 12:21:13;;;;;;;;;14.40;14.40;;;;;;;;4995824;28;8866;-83
2021/06/02 12:23:52;;;;;;;;;12.20;12.20;;;;;;;;4995408;28;8886;-78
2021/06/02 12:26:26;;;;;;;;;13.20;13.20;;;;;;;;5005834;28;8904;-86
2021/06/02 12:28:53;;;;;;;;;13.80;13.80;;;;;;;;5005950;28;9696;-81
2021/06/02 12:31:41;;;;;;;;;12.00;12.00;;;;;;;;5002594;28;8843;-82
2021/06/02 12:34:14;;;;;;;;;12.80;12.80;;;;;;;;5005128;28;8981;-81
2021/06/02 12:36:47;;;;;;;;;14.00;14.00;;;;;;;;5006813;28;8898;-79
2021/06/02 12:39:16;;;;;;;;;13.20;13.20;;;;;;;;5007708;28;8863;-85
2021/06/02 12:41:46;;;;;;;;;12.20;11.20;;;;;;;;5002172;28;8872;-79
2021/06/02 12:44:14;;;;;;;;;16.80;16.20;;;;;;;;5002313;28;8889;-82
2021/06/02 12:46:45;;;;;;;;;14.80;14.80;;;;;;;;4994927;28;8994;-81
2021/06/02 12:49:12;;;;;;;;;14.00;14.00;;;;;;;;5002770;28;8965;-84
2021/06/02 12:51:39;;;;;;;;;12.00;12.00;;;;;;;;5006413;28;8860;-77
2021/06/02 12:54:06;;;;;;;;;14.80;14.80;;;;;;;;5005022;28;8918;-79
2021/06/02 12:56:33;;;;;;;;;12.80;12.80;;;;;;;;5001666;28;8868;-82
2021/06/02 12:59:01;;;;;;;;;15.60;15.60;;;;;;;;5000502;28;8900;-80
2021/06/02 13:01:30;;;;;;;;;12.00;12.00;;;;;;;;5001773;28;8836;-79
2021/06/02 13:03:59;;;;;;;;;14.20;14.20;;;;;;;;4998761;28;8886;-80
2021/06/02 13:06:29;;;;;;;;;17.60;16.00;;;;;;;;5015294;28;8886;-85
2021/06/02 13:08:57;;;;;;;;;15.60;15.60;;;;;;;;5004579;28;8876;-79
2021/06/02 13:11:27;;;;;;;;;15.00;15.00;;;;;;;;4999203;28;8884;-84
2021/06/02 13:13:55;;;;;;;;;12.00;12.00;;;;;;;;5000524;28;9618;-77
2021/06/02 13:16:23;;;;;;;;;15.80;13.00;;;;;;;;5000556;28;8910;-84
2021/06/02 13:18:58;;;;;;;;;14.20;13.00;;;;;;;;5003700;28;8890;-82
2021/06/02 13:21:29;;;;;;;;;13.00;13.00;;;;;;;;4994908;28;8973;-80
2021/06/02 13:24:08;;;;;;;;;12.80;12.20;;;;;;;;5000366;28;8918;-84
2021/06/02 13:26:36;;;;;;;;;16.40;14.60;;;;;;;;4995344;28;8860;-78
2021/06/02 13:29:03;;;;;;;;;13.60;12.60;;;;;;;;5002786;28;9516;-78
2021/06/02 13:31:40;;;;;;;;;10.00;8.20;;;;;;;;4999314;28;8889;-80
2021/06/02 13:34:07;;;;;;;;;7.00;7.00;;;;;;;;4997370;28;8880;-89
2021/06/02 13:36:38;;;;;;;;;7.40;6.40;;;;;;;;5005050;28;8874;-87
2021/06/02 13:39:16;;;;;;;;;9.80;9.60;;;;;;;;5001468;28;8986;-82
2021/06/02 13:41:44;;;;;;;;;6.80;6.40;;;;;;;;4995894;28;8837;-80
2021/06/02 13:44:21;;;;;;;;;4.80;4.80;;;;;;;;4995618;28;8875;-77
2021/06/02 13:46:50;;;;;;;;;6.60;5.20;;;;;;;;4989294;28;8874;-77
2021/06/02 13:49:17;;;;;;;;;6.60;6.60;;;;;;;;4997531;28;8870;-78
2021/06/02 13:51:45;;;;;;;;;7.80;7.80;;;;;;;;5000222;28;9030;-77
2021/06/02 13:54:18;;;;;;;;;7.40;6.60;;;;;;;;4994236;28;8852;-78
2021/06/02 13:57:06;;;;;;;;;8.60;8.60;;;;;;;;5001936;28;8882;-81
2021/06/02 13:59:41;;;;;;;;;10.50;10.50;;;;;;;;4998655;28;8890;-82
2021/06/02 14:02:10;;;;;;;;;9.00;9.00;;;;;;;;4996709;28;8824;-80
2021/06/02 14:04:38;;;;;;;;;11.50;11.50;;;;;;;;4998946;28;8890;-80
2021/06/02 14:07:07;;;;;;;;;10.00;10.00;;;;;;;;5004025;28;8900;-76
2021/06/02 14:09:34;;;;;;;;;13.00;9.00;;;;;;;;5001397;28;9780;-79
2021/06/02 14:12:01;;;;;;;;;11.25;9.75;;;;;;;;4997637;28;9051;-75
2021/06/02 14:14:28;;;;;;;;;12.00;12.00;;;;;;;;4997235;28;8850;-78
2021/06/02 14:16:55;;;;;;;;;13.25;13.25;;;;;;;;4996304;28;8884;-78
2021/06/02 14:19:24;;;;;;;;;14.80;13.80;;;;;;;;4996651;28;8864;-77
2021/06/02 14:21:51;;;;;;;;;13.60;13.60;;;;;;;;4991979;28;8939;-78
2021/06/02 14:24:19;;;;;;;;;12.60;12.60;;;;;;;;4995659;28;8872;-76
2021/06/02 14:26:47;;;;;;;;;15.20;15.20;;;;;;;;5002852;28;8863;-76
2021/06/02 14:29:14;;;;;;;;;15.60;15.20;;;;;;;;4996224;28;8852;-76
2021/06/02 14:31:43;;;;;;;;;15.40;14.40;;;;;;;;4997253;28;8987;-81
2021/06/02 14:34:12;;;;;;;;;9.40;9.40;;;;;;;;5001661;28;9090;-77
2021/06/02 14:36:40;;;;;;;;;7.40;7.20;;;;;;;;5000699;28;8892;-80
2021/06/02 14:39:10;;;;;;;;;10.20;9.00;;;;;;;;4989757;28;8886;-84
2021/06/02 14:41:37;;;;;;;;;9.40;9.40;;;;;;;;4998304;28;8890;-75
2021/06/02 14:44:07;;;;;;;;;7.20;7.20;;;;;;;;4997407;28;9002;-81
2021/06/02 14:46:34;;;;;;;;;8.20;8.20;;;;;;;;5003789;28;8915;-79
2021/06/02 14:49:01;;;;;;;;;10.20;10.20;;;;;;;;4990840;28;10183;-78
2021/06/02 14:51:29;;;;;;;;;11.20;9.20;;;;;;;;4997737;28;9404;-79
2021/06/02 14:53:57;;;;;;;;;12.60;10.60;;;;;;;;4998334;28;8949;-76
2021/06/02 14:56:24;;;;;;;;;11.80;11.80;;;;;;;;4996119;28;8955;-79
2021/06/02 14:58:51;;;;;;;;;9.80;9.80;;;;;;;;4999284;28;8891;-75
2021/06/02 15:01:20;;;;;;;;;10.40;10.40;;;;;;;;4995462;28;8816;-74
2021/06/02 15:03:47;;;;;;;;;9.20;9.20;;;;;;;;5003334;28;8894;-79
2021/06/02 15:06:14;;;;;;;;;10.20;10.20;;;;;;;;5000106;28;8884;-83
2021/06/02 15:08:41;;;;;;;;;9.60;9.60;;;;;;;;5004987;28;8884;-79
2021/06/02 15:11:09;;;;;;;;;12.40;12.40;;;;;;;;4983681;28;8879;-77
2021/06/02 15:13:36;;;;;;;;;10.20;10.20;;;;;;;;5005379;28;8864;-79
2021/06/02 15:16:05;;;;;;;;;11.80;10.40;;;;;;;;5003832;28;8864;-78
2021/06/02 15:18:33;;;;;;;;;10.00;8.40;;;;;;;;5003275;28;8975;-79
2021/06/02 15:21:01;;;;;;;;;13.00;10.20;;;;;;;;5002300;28;8863;-77
2021/06/02 15:23:28;;;;;;;;;8.60;8.60;;;;;;;;5004182;28;8872;-78
2021/06/02 15:25:56;;;;;;;;;8.80;8.80;;;;;;;;5004054;28;8876;-76
2021/06/02 15:28:31;;;;;;;;;9.00;9.00;;;;;;;;5003439;28;9732;-78
2021/06/02 15:31:00;;;;;;;;;9.20;8.00;;;;;;;;5002619;28;8921;-78